EJA248 KPWM-CYKF
Flight info
| Callsign | EJA248 |
|---|---|
| Flight time | N/A |
| Altitude | 43000 |
| Route | ALIEH DCT HSKEL DCT BAUER DCT CAM Q822 DUVEP |
| Aircraft | C700/M-SBDGHM1RWXY/LB2 |
Departure
| Time | 2026-05-08 00:25 |
|---|---|
| Airport | Portland International Jetport (KPWM) |
Arrival
| Time | N/A |
|---|---|
| Airport | Region of Waterloo International Airport (CYKF) |
| Time | Latitude | Longitude | Altitude | Speed | Heading |
|---|---|---|---|---|---|
| 2026-05-08 00:00 | 43.64824 | -70.30100 | 49 ft | 0 kts | 302° |
| 2026-05-08 00:20 | 43.64826 | -70.30104 | 47 ft | 3 kts | 301° |
| 2026-05-08 00:20 | 43.64837 | -70.30171 | 52 ft | 11 kts | 263° |
| 2026-05-08 00:20 | 43.64831 | -70.30265 | 53 ft | 8 kts | 259° |
| 2026-05-08 00:21 | 43.64820 | -70.30346 | 54 ft | 9 kts | 259° |
| 2026-05-08 00:21 | 43.64806 | -70.30440 | 54 ft | 11 kts | 248° |
| 2026-05-08 00:21 | 43.64734 | -70.30432 | 51 ft | 13 kts | 162° |
| 2026-05-08 00:21 | 43.64638 | -70.30396 | 49 ft | 16 kts | 160° |
| 2026-05-08 00:22 | 43.64543 | -70.30308 | 48 ft | 19 kts | 101° |
| 2026-05-08 00:22 | 43.64531 | -70.30123 | 49 ft | 20 kts | 95° |
| 2026-05-08 00:22 | 43.64514 | -70.29950 | 44 ft | 12 kts | 112° |
| 2026-05-08 00:22 | 43.64497 | -70.29926 | 46 ft | 0 kts | 137° |
| 2026-05-08 00:23 | 43.64494 | -70.29924 | 45 ft | 0 kts | 145° |
| 2026-05-08 00:24 | 43.64493 | -70.29923 | 45 ft | 1 kts | 146° |
| 2026-05-08 00:24 | 43.64478 | -70.29919 | 45 ft | 5 kts | 171° |
| 2026-05-08 00:24 | 43.64419 | -70.29926 | 44 ft | 10 kts | 213° |
| 2026-05-08 00:24 | 43.64406 | -70.30024 | 44 ft | 11 kts | 276° |
| 2026-05-08 00:25 | 43.64417 | -70.30087 | 45 ft | 0 kts | 271° |
| 2026-05-08 00:25 | 43.64422 | -70.30153 | 47 ft | 38 kts | 277° |
| 2026-05-08 00:25 | 43.64482 | -70.31065 | 209 ft | 133 kts | 276° |
| 2026-05-08 00:25 | 43.64588 | -70.32453 | 1254 ft | 158 kts | 278° |
| 2026-05-08 00:26 | 43.64698 | -70.34089 | 2446 ft | 188 kts | 277° |
| 2026-05-08 00:26 | 43.64821 | -70.35969 | 3722 ft | 207 kts | 277° |
| 2026-05-08 00:26 | 43.64954 | -70.37944 | 3989 ft | 207 kts | 276° |
| 2026-05-08 00:26 | 43.65082 | -70.39850 | 3984 ft | 196 kts | 277° |
| 2026-05-08 00:27 | 43.65211 | -70.41734 | 3982 ft | 195 kts | 277° |
| 2026-05-08 00:27 | 43.65338 | -70.43600 | 3982 ft | 194 kts | 277° |
| 2026-05-08 00:27 | 43.65481 | -70.45594 | 4544 ft | 228 kts | 278° |
| 2026-05-08 00:27 | 43.65915 | -70.47844 | 6109 ft | 249 kts | 286° |
| 2026-05-08 00:28 | 43.66382 | -70.50179 | 7935 ft | 261 kts | 284° |
| 2026-05-08 00:28 | 43.66835 | -70.52624 | 9930 ft | 267 kts | 284° |
| 2026-05-08 00:28 | 43.67327 | -70.55140 | 11817 ft | 274 kts | 283° |
| 2026-05-08 00:28 | 43.67836 | -70.57693 | 13641 ft | 279 kts | 282° |
| 2026-05-08 00:29 | 43.68353 | -70.60320 | 15257 ft | 285 kts | 280° |
| 2026-05-08 00:29 | 43.68872 | -70.62996 | 16869 ft | 291 kts | 279° |
| 2026-05-08 00:29 | 43.69400 | -70.65710 | 18359 ft | 297 kts | 278° |
| 2026-05-08 00:29 | 43.69947 | -70.68514 | 19678 ft | 302 kts | 278° |
| 2026-05-08 00:30 | 43.70491 | -70.71304 | 20948 ft | 307 kts | 277° |
| 2026-05-08 00:30 | 43.71037 | -70.74216 | 22249 ft | 309 kts | 274° |
| 2026-05-08 00:30 | 43.71334 | -70.77149 | 23498 ft | 309 kts | 268° |
| 2026-05-08 00:30 | 43.71379 | -70.80078 | 24490 ft | 310 kts | 262° |
| 2026-05-08 00:31 | 43.71164 | -70.83055 | 25473 ft | 312 kts | 256° |
| 2026-05-08 00:31 | 43.70687 | -70.85995 | 26448 ft | 315 kts | 251° |
| 2026-05-08 00:31 | 43.69945 | -70.88876 | 27395 ft | 320 kts | 246° |
| 2026-05-08 00:31 | 43.69099 | -70.91747 | 28337 ft | 325 kts | 246° |
| 2026-05-08 00:32 | 43.68269 | -70.94663 | 29248 ft | 330 kts | 247° |
| 2026-05-08 00:32 | 43.67415 | -70.97662 | 30063 ft | 336 kts | 246° |
| 2026-05-08 00:32 | 43.66557 | -71.00624 | 30726 ft | 341 kts | 246° |
| 2026-05-08 00:32 | 43.65660 | -71.03740 | 31355 ft | 346 kts | 248° |
| 2026-05-08 00:33 | 43.64957 | -71.06944 | 31929 ft | 353 kts | 253° |
| 2026-05-08 00:33 | 43.64379 | -71.10293 | 32476 ft | 357 kts | 253° |
| 2026-05-08 00:33 | 43.63782 | -71.13598 | 32995 ft | 361 kts | 252° |
| 2026-05-08 00:33 | 43.63164 | -71.16962 | 33714 ft | 360 kts | 253° |
| 2026-05-08 00:34 | 43.62565 | -71.20291 | 34273 ft | 359 kts | 253° |
| 2026-05-08 00:34 | 43.61964 | -71.23656 | 34807 ft | 360 kts | 253° |
| 2026-05-08 00:34 | 43.61357 | -71.27012 | 35315 ft | 360 kts | 253° |
| 2026-05-08 00:34 | 43.60748 | -71.30361 | 35817 ft | 361 kts | 253° |
| 2026-05-08 00:35 | 43.60136 | -71.33732 | 36310 ft | 361 kts | 253° |
| 2026-05-08 00:35 | 43.59527 | -71.37086 | 36793 ft | 362 kts | 253° |
| 2026-05-08 00:35 | 43.58908 | -71.40488 | 37266 ft | 363 kts | 253° |
| 2026-05-08 00:35 | 43.58295 | -71.43847 | 37727 ft | 363 kts | 253° |
| 2026-05-08 00:36 | 43.57683 | -71.47194 | 38183 ft | 364 kts | 253° |
| 2026-05-08 00:36 | 43.57054 | -71.50628 | 38607 ft | 365 kts | 253° |
| 2026-05-08 00:36 | 43.56437 | -71.53990 | 38938 ft | 366 kts | 253° |
| 2026-05-08 00:36 | 43.55812 | -71.57392 | 39274 ft | 367 kts | 253° |
| 2026-05-08 00:37 | 43.55180 | -71.60823 | 39611 ft | 368 kts | 253° |
| 2026-05-08 00:37 | 43.54561 | -71.64180 | 39939 ft | 369 kts | 253° |
| 2026-05-08 00:37 | 43.53915 | -71.67673 | 40276 ft | 370 kts | 254° |
| 2026-05-08 00:38 | 43.52651 | -71.74496 | 40905 ft | 372 kts | 254° |
| 2026-05-08 00:38 | 43.51999 | -71.78004 | 41233 ft | 372 kts | 254° |
| 2026-05-08 00:38 | 43.51348 | -71.81504 | 41548 ft | 373 kts | 254° |
| 2026-05-08 00:38 | 43.50712 | -71.84909 | 41855 ft | 374 kts | 254° |
| 2026-05-08 00:39 | 43.50061 | -71.88394 | 42156 ft | 375 kts | 254° |
| 2026-05-08 00:39 | 43.49408 | -71.91884 | 42455 ft | 375 kts | 255° |
| 2026-05-08 00:39 | 43.48758 | -71.95351 | 42744 ft | 376 kts | 255° |
| 2026-05-08 00:40 | 43.47421 | -72.02459 | 42818 ft | 390 kts | 255° |
| 2026-05-08 00:40 | 43.46038 | -72.09785 | 42832 ft | 403 kts | 255° |
| 2026-05-08 00:41 | 43.44595 | -72.17402 | 42829 ft | 416 kts | 255° |
| 2026-05-08 00:41 | 43.43120 | -72.25155 | 42826 ft | 418 kts | 255° |
| 2026-05-08 00:42 | 43.41646 | -72.32872 | 42840 ft | 419 kts | 255° |
| 2026-05-08 00:42 | 43.40157 | -72.40632 | 42834 ft | 419 kts | 255° |
| 2026-05-08 00:43 | 43.38369 | -72.48194 | 42842 ft | 419 kts | 247° |
| 2026-05-08 00:43 | 43.35510 | -72.55203 | 42839 ft | 420 kts | 240° |
| 2026-05-08 00:44 | 43.32461 | -72.62013 | 42838 ft | 418 kts | 240° |
| 2026-05-08 00:44 | 43.29398 | -72.68791 | 42837 ft | 418 kts | 240° |
| 2026-05-08 00:45 | 43.26324 | -72.75588 | 42846 ft | 418 kts | 240° |
| 2026-05-08 00:45 | 43.23258 | -72.82355 | 42848 ft | 417 kts | 240° |
| 2026-05-08 00:46 | 43.20187 | -72.89111 | 42852 ft | 417 kts | 240° |
| 2026-05-08 00:46 | 43.17139 | -72.95808 | 42860 ft | 417 kts | 240° |
| 2026-05-08 00:47 | 43.14040 | -73.02595 | 42864 ft | 417 kts | 240° |
| 2026-05-08 00:47 | 43.10972 | -73.09304 | 42867 ft | 417 kts | 240° |
| 2026-05-08 00:48 | 43.07888 | -73.16030 | 42868 ft | 418 kts | 240° |
| 2026-05-08 00:48 | 43.04802 | -73.22745 | 42868 ft | 418 kts | 240° |
| 2026-05-08 00:49 | 43.01995 | -73.29666 | 42871 ft | 416 kts | 248° |
| 2026-05-08 00:49 | 43.00261 | -73.37219 | 42874 ft | 416 kts | 258° |
| 2026-05-08 00:50 | 42.99704 | -73.45060 | 42881 ft | 418 kts | 268° |
| 2026-05-08 00:50 | 42.99903 | -73.53021 | 42886 ft | 418 kts | 269° |
| 2026-05-08 00:51 | 43.00071 | -73.60897 | 42882 ft | 418 kts | 270° |
| 2026-05-08 00:51 | 43.00236 | -73.67505 | 42890 ft | 417 kts | 269° |
| 2026-05-08 00:52 | 43.00406 | -73.75403 | 42890 ft | 417 kts | 269° |
| 2026-05-08 00:52 | 43.00581 | -73.83320 | 42880 ft | 416 kts | 269° |
| 2026-05-08 00:53 | 43.00747 | -73.91230 | 42889 ft | 416 kts | 269° |
| 2026-05-08 00:53 | 43.00907 | -73.99099 | 42889 ft | 416 kts | 269° |
| 2026-05-08 00:54 | 43.01062 | -74.06991 | 42891 ft | 415 kts | 269° |
| 2026-05-08 00:54 | 43.01213 | -74.14887 | 42893 ft | 415 kts | 269° |
| 2026-05-08 00:55 | 43.01357 | -74.22783 | 42901 ft | 414 kts | 269° |
| 2026-05-08 00:55 | 43.01652 | -74.30645 | 42904 ft | 415 kts | 271° |
| 2026-05-08 00:56 | 43.02002 | -74.38523 | 42905 ft | 414 kts | 271° |
| 2026-05-08 00:56 | 43.02353 | -74.46325 | 42908 ft | 415 kts | 271° |
| 2026-05-08 00:57 | 43.02701 | -74.54241 | 42912 ft | 415 kts | 271° |
| 2026-05-08 00:57 | 43.03041 | -74.62109 | 42912 ft | 415 kts | 271° |
| 2026-05-08 00:58 | 43.03376 | -74.69938 | 42916 ft | 416 kts | 271° |
| 2026-05-08 00:58 | 43.03709 | -74.77901 | 42921 ft | 416 kts | 271° |
| 2026-05-08 00:59 | 43.04032 | -74.85738 | 42915 ft | 417 kts | 271° |
| 2026-05-08 00:59 | 43.04355 | -74.93693 | 42920 ft | 417 kts | 270° |
| 2026-05-08 01:00 | 43.04670 | -75.01577 | 42921 ft | 417 kts | 270° |
| 2026-05-08 01:00 | 43.04982 | -75.09579 | 42924 ft | 418 kts | 270° |
| 2026-05-08 01:01 | 43.05288 | -75.17528 | 42930 ft | 419 kts | 270° |
| 2026-05-08 01:01 | 43.05586 | -75.25407 | 42934 ft | 419 kts | 270° |
| 2026-05-08 01:02 | 43.05869 | -75.33374 | 42922 ft | 419 kts | 270° |
| 2026-05-08 01:02 | 43.06067 | -75.41368 | 42925 ft | 419 kts | 270° |
| 2026-05-08 01:03 | 43.06303 | -75.49328 | 42928 ft | 420 kts | 270° |
| 2026-05-08 01:03 | 43.06510 | -75.57276 | 42933 ft | 420 kts | 270° |
| 2026-05-08 01:04 | 43.06725 | -75.65279 | 42920 ft | 420 kts | 270° |
| 2026-05-08 01:04 | 43.06910 | -75.72517 | 42917 ft | 421 kts | 270° |
| 2026-05-08 01:05 | 43.07109 | -75.80502 | 42931 ft | 421 kts | 270° |
| 2026-05-08 01:05 | 43.07306 | -75.88569 | 42932 ft | 421 kts | 270° |
| 2026-05-08 01:06 | 43.07493 | -75.96509 | 42933 ft | 421 kts | 270° |
| 2026-05-08 01:06 | 43.07676 | -76.04513 | 42934 ft | 421 kts | 270° |
| 2026-05-08 01:07 | 43.07854 | -76.12520 | 42936 ft | 422 kts | 270° |
| 2026-05-08 01:07 | 43.08028 | -76.20564 | 42931 ft | 422 kts | 270° |
| 2026-05-08 01:08 | 43.08194 | -76.28574 | 42934 ft | 422 kts | 270° |
| 2026-05-08 01:08 | 43.08356 | -76.36629 | 42929 ft | 423 kts | 269° |
| 2026-05-08 01:09 | 43.08511 | -76.44613 | 42933 ft | 423 kts | 269° |
| 2026-05-08 01:09 | 43.08662 | -76.52645 | 42936 ft | 423 kts | 269° |
| 2026-05-08 01:10 | 43.08807 | -76.60693 | 42933 ft | 424 kts | 269° |
| 2026-05-08 01:10 | 43.08946 | -76.68731 | 42934 ft | 424 kts | 269° |
| 2026-05-08 01:11 | 43.09065 | -76.76767 | 42936 ft | 424 kts | 269° |
| 2026-05-08 01:11 | 43.09178 | -76.84882 | 42936 ft | 424 kts | 269° |
| 2026-05-08 01:12 | 43.09288 | -76.92983 | 42943 ft | 425 kts | 269° |
| 2026-05-08 01:12 | 43.09389 | -77.01014 | 42943 ft | 425 kts | 269° |
| 2026-05-08 01:13 | 43.09487 | -77.09132 | 42940 ft | 425 kts | 269° |
| 2026-05-08 01:13 | 43.09578 | -77.17256 | 42943 ft | 426 kts | 269° |
| 2026-05-08 01:14 | 43.09663 | -77.25289 | 42941 ft | 426 kts | 269° |
| 2026-05-08 01:14 | 43.09743 | -77.33441 | 42946 ft | 426 kts | 269° |
| 2026-05-08 01:15 | 43.09817 | -77.41483 | 42933 ft | 426 kts | 269° |
| 2026-05-08 01:15 | 43.09886 | -77.49652 | 42934 ft | 425 kts | 269° |
| 2026-05-08 01:16 | 43.09949 | -77.57762 | 42937 ft | 426 kts | 269° |
| 2026-05-08 01:16 | 43.10006 | -77.65828 | 42934 ft | 426 kts | 269° |
| 2026-05-08 01:16 | 43.10032 | -77.69859 | 42666 ft | 424 kts | 269° |
| 2026-05-08 01:17 | 43.10058 | -77.73824 | 42128 ft | 408 kts | 269° |
| 2026-05-08 01:17 | 43.10080 | -77.77619 | 41598 ft | 404 kts | 269° |
| 2026-05-08 01:17 | 43.10099 | -77.81434 | 41077 ft | 402 kts | 269° |
| 2026-05-08 01:17 | 43.10119 | -77.85340 | 40538 ft | 403 kts | 269° |
| 2026-05-08 01:18 | 43.10138 | -77.89210 | 40004 ft | 403 kts | 269° |
| 2026-05-08 01:18 | 43.10155 | -77.92963 | 39483 ft | 404 kts | 269° |
| 2026-05-08 01:18 | 43.10171 | -77.96837 | 38955 ft | 404 kts | 269° |
| 2026-05-08 01:18 | 43.10185 | -78.00730 | 38374 ft | 404 kts | 269° |
| 2026-05-08 01:19 | 43.10199 | -78.04566 | 37832 ft | 402 kts | 269° |
| 2026-05-08 01:19 | 43.10211 | -78.08347 | 37307 ft | 401 kts | 269° |
| 2026-05-08 01:19 | 43.10222 | -78.12116 | 36789 ft | 400 kts | 269° |
| 2026-05-08 01:19 | 43.10231 | -78.15983 | 36251 ft | 399 kts | 269° |
| 2026-05-08 01:20 | 43.10239 | -78.19721 | 35733 ft | 398 kts | 269° |
| 2026-05-08 01:20 | 43.10246 | -78.23497 | 35210 ft | 397 kts | 269° |
| 2026-05-08 01:20 | 43.10252 | -78.27301 | 34684 ft | 395 kts | 269° |
| 2026-05-08 01:20 | 43.10256 | -78.31042 | 34165 ft | 395 kts | 269° |
| 2026-05-08 01:21 | 43.10259 | -78.34778 | 33608 ft | 394 kts | 269° |
| 2026-05-08 01:21 | 43.10261 | -78.38551 | 33083 ft | 396 kts | 269° |
| 2026-05-08 01:21 | 43.10262 | -78.42335 | 32557 ft | 397 kts | 269° |
| 2026-05-08 01:21 | 43.10261 | -78.46090 | 32037 ft | 398 kts | 269° |
| 2026-05-08 01:22 | 43.10259 | -78.49889 | 31516 ft | 400 kts | 269° |
| 2026-05-08 01:22 | 43.10257 | -78.53684 | 30995 ft | 400 kts | 269° |
| 2026-05-08 01:22 | 43.10252 | -78.57552 | 30460 ft | 401 kts | 269° |
| 2026-05-08 01:22 | 43.10247 | -78.61301 | 29911 ft | 403 kts | 269° |
| 2026-05-08 01:23 | 43.10240 | -78.65158 | 29354 ft | 401 kts | 269° |
| 2026-05-08 01:23 | 43.10231 | -78.68976 | 28825 ft | 400 kts | 269° |
| 2026-05-08 01:23 | 43.10222 | -78.72756 | 28291 ft | 398 kts | 269° |
| 2026-05-08 01:23 | 43.10211 | -78.76564 | 27778 ft | 397 kts | 269° |
| 2026-05-08 01:24 | 43.10200 | -78.80288 | 27260 ft | 395 kts | 269° |
| 2026-05-08 01:24 | 43.10187 | -78.84031 | 26739 ft | 393 kts | 270° |
| 2026-05-08 01:24 | 43.10172 | -78.87828 | 26215 ft | 391 kts | 270° |
| 2026-05-08 01:24 | 43.10158 | -78.91415 | 25712 ft | 390 kts | 270° |
| 2026-05-08 01:25 | 43.10141 | -78.95198 | 25197 ft | 388 kts | 270° |
| 2026-05-08 01:25 | 43.10124 | -78.98891 | 24677 ft | 387 kts | 270° |
| 2026-05-08 01:25 | 43.10105 | -79.02592 | 24174 ft | 385 kts | 270° |
| 2026-05-08 01:25 | 43.10095 | -79.06191 | 23670 ft | 384 kts | 272° |
| 2026-05-08 01:26 | 43.10532 | -79.09753 | 23137 ft | 379 kts | 287° |
| 2026-05-08 01:26 | 43.11466 | -79.13124 | 22638 ft | 378 kts | 292° |
| 2026-05-08 01:26 | 43.12541 | -79.16387 | 22139 ft | 376 kts | 293° |
| 2026-05-08 01:26 | 43.13536 | -79.19659 | 21648 ft | 373 kts | 290° |
| 2026-05-08 01:27 | 43.14410 | -79.23020 | 21163 ft | 370 kts | 289° |
| 2026-05-08 01:27 | 43.15293 | -79.26321 | 20667 ft | 368 kts | 290° |
| 2026-05-08 01:27 | 43.16245 | -79.29567 | 20183 ft | 366 kts | 291° |
| 2026-05-08 01:27 | 43.17192 | -79.32822 | 19706 ft | 364 kts | 290° |
| 2026-05-08 01:28 | 43.18062 | -79.35984 | 19228 ft | 361 kts | 289° |
| 2026-05-08 01:28 | 43.18951 | -79.39219 | 18749 ft | 359 kts | 290° |
| 2026-05-08 01:28 | 43.19859 | -79.42426 | 18281 ft | 357 kts | 290° |
| 2026-05-08 01:28 | 43.20750 | -79.45577 | 17766 ft | 354 kts | 290° |
| 2026-05-08 01:29 | 43.21614 | -79.48681 | 17308 ft | 352 kts | 290° |
| 2026-05-08 01:29 | 43.22478 | -79.51793 | 16847 ft | 350 kts | 290° |
| 2026-05-08 01:29 | 43.23365 | -79.54966 | 16379 ft | 348 kts | 290° |
| 2026-05-08 01:29 | 43.24211 | -79.57999 | 15922 ft | 346 kts | 289° |
| 2026-05-08 01:30 | 43.25065 | -79.61073 | 15464 ft | 343 kts | 289° |
| 2026-05-08 01:30 | 43.25917 | -79.64143 | 15014 ft | 341 kts | 289° |
| 2026-05-08 01:30 | 43.26762 | -79.67169 | 14569 ft | 339 kts | 290° |
| 2026-05-08 01:30 | 43.27820 | -79.70058 | 14117 ft | 335 kts | 298° |
| 2026-05-08 01:31 | 43.29080 | -79.72742 | 13636 ft | 340 kts | 301° |
| 2026-05-08 01:31 | 43.30369 | -79.75432 | 13189 ft | 336 kts | 299° |
| 2026-05-08 01:31 | 43.31473 | -79.78099 | 12676 ft | 307 kts | 296° |
| 2026-05-08 01:31 | 43.32448 | -79.80593 | 12151 ft | 280 kts | 296° |
| 2026-05-08 01:32 | 43.33391 | -79.82843 | 11640 ft | 269 kts | 298° |
| 2026-05-08 01:32 | 43.34326 | -79.85020 | 11134 ft | 265 kts | 298° |
| 2026-05-08 01:32 | 43.35243 | -79.87201 | 10632 ft | 264 kts | 297° |
| 2026-05-08 01:32 | 43.36160 | -79.89410 | 10087 ft | 262 kts | 297° |
| 2026-05-08 01:33 | 43.37057 | -79.91557 | 9506 ft | 260 kts | 297° |
| 2026-05-08 01:33 | 43.37952 | -79.93694 | 8905 ft | 258 kts | 298° |
| 2026-05-08 01:33 | 43.38842 | -79.95823 | 8322 ft | 256 kts | 298° |
| 2026-05-08 01:33 | 43.39731 | -79.97954 | 7738 ft | 255 kts | 298° |
| 2026-05-08 01:34 | 43.40606 | -80.00053 | 7171 ft | 252 kts | 298° |
| 2026-05-08 01:34 | 43.41451 | -80.02076 | 6740 ft | 236 kts | 298° |
| 2026-05-08 01:34 | 43.42248 | -80.03985 | 6439 ft | 219 kts | 297° |
| 2026-05-08 01:34 | 43.42979 | -80.05744 | 6187 ft | 207 kts | 297° |
| 2026-05-08 01:35 | 43.43680 | -80.07433 | 5934 ft | 207 kts | 297° |
| 2026-05-08 01:35 | 43.44404 | -80.09178 | 5671 ft | 207 kts | 298° |
| 2026-05-08 01:35 | 43.45145 | -80.10884 | 5406 ft | 208 kts | 303° |
| 2026-05-08 01:35 | 43.46149 | -80.12290 | 5137 ft | 210 kts | 319° |
| 2026-05-08 01:36 | 43.47429 | -80.13307 | 4858 ft | 213 kts | 333° |
| 2026-05-08 01:36 | 43.48767 | -80.14116 | 4590 ft | 213 kts | 331° |
| 2026-05-08 01:36 | 43.49967 | -80.15276 | 4304 ft | 208 kts | 314° |
| 2026-05-08 01:36 | 43.50845 | -80.16806 | 4034 ft | 199 kts | 299° |
| 2026-05-08 01:37 | 43.51374 | -80.18538 | 3770 ft | 196 kts | 284° |
| 2026-05-08 01:37 | 43.51553 | -80.20387 | 3523 ft | 196 kts | 270° |
| 2026-05-08 01:37 | 43.51375 | -80.22239 | 3266 ft | 197 kts | 256° |
| 2026-05-08 01:37 | 43.51060 | -80.23417 | 3092 ft | 197 kts | 247° |
| 2026-05-08 01:38 | 43.50262 | -80.25692 | 2737 ft | 197 kts | 247° |
| 2026-05-08 01:38 | 43.49880 | -80.26835 | 2573 ft | 197 kts | 248° |
| 2026-05-08 01:38 | 43.49153 | -80.29012 | 2349 ft | 174 kts | 247° |
| 2026-05-08 01:38 | 43.48819 | -80.30001 | 2194 ft | 166 kts | 247° |
| 2026-05-08 01:39 | 43.48340 | -80.31422 | 1936 ft | 157 kts | 247° |
| 2026-05-08 01:39 | 43.47899 | -80.32730 | 1725 ft | 139 kts | 247° |
| 2026-05-08 01:39 | 43.47521 | -80.33854 | 1527 ft | 124 kts | 247° |
| 2026-05-08 01:39 | 43.47173 | -80.34887 | 1346 ft | 115 kts | 246° |
| 2026-05-08 01:40 | 43.46783 | -80.35981 | 1259 ft | 152 kts | 243° |
| 2026-05-08 01:40 | 43.46287 | -80.37430 | 2189 ft | 179 kts | 249° |
| 2026-05-08 01:40 | 43.45765 | -80.39052 | 3565 ft | 193 kts | 247° |
| 2026-05-08 01:40 | 43.45139 | -80.40911 | 4013 ft | 219 kts | 247° |
| 2026-05-08 01:41 | 43.44546 | -80.42664 | 3998 ft | 190 kts | 247° |
| 2026-05-08 01:41 | 43.44007 | -80.44261 | 3995 ft | 182 kts | 247° |
| 2026-05-08 01:41 | 43.43482 | -80.45812 | 3990 ft | 178 kts | 247° |
| 2026-05-08 01:41 | 43.42988 | -80.47266 | 3990 ft | 161 kts | 248° |
| 2026-05-08 01:42 | 43.42561 | -80.48673 | 3974 ft | 157 kts | 259° |
| 2026-05-08 01:42 | 43.42802 | -80.50060 | 3971 ft | 155 kts | 305° |
| 2026-05-08 01:42 | 43.43870 | -80.50812 | 4051 ft | 200 kts | 350° |
| 2026-05-08 01:42 | 43.45335 | -80.50343 | 5125 ft | 230 kts | 18° |
| 2026-05-08 01:43 | 43.46815 | -80.49436 | 6013 ft | 234 kts | 19° |
| 2026-05-08 01:43 | 43.48295 | -80.48476 | 6008 ft | 228 kts | 20° |